Time,TemperatureF,DewpointF,PressureIn,WindDirection,WindDirectionDegrees,WindSpeedMPH,WindSpeedGustMPH,Humidity,HourlyPrecipIn,Conditions,Clouds,dailyrainin,SolarRadiationWatts/m^2,SoftwareType,DateUTC
2013-08-29 00:02:00,59.0,39.0,-100.00,SE,144,2.0,5.0,47,0.00,,,0.00,0.000000,,2013-08-29 06:02:00,
2013-08-29 00:12:00,59.0,39.0,-100.00,SE,144,2.0,5.0,47,0.00,,,0.00,0.000000,,2013-08-29 06:12:00,
2013-08-29 00:22:00,57.0,40.0,-100.00,ESE,115,2.0,3.0,52,0.00,,,0.00,0.000000,,2013-08-29 06:22:00,
2013-08-29 00:52:00,57.0,40.0,-100.00,ESE,115,2.0,3.0,52,0.00,,,0.00,0.000000,,2013-08-29 06:52:00,
2013-08-29 01:01:00,57.0,40.0,-100.00,ESE,115,2.0,3.0,52,0.00,,,0.00,0.000000,,2013-08-29 07:01:00,
2013-08-29 01:12:00,57.0,40.0,-100.00,ESE,115,2.0,3.0,52,0.00,,,0.00,0.000000,,2013-08-29 07:12:00,
2013-08-29 01:22:00,54.0,40.0,-100.00,ESE,110,2.0,4.0,60,0.00,,,0.00,0.000000,,2013-08-29 07:22:00,
2013-08-29 01:53:00,54.0,40.0,-100.00,ESE,110,2.0,4.0,60,0.00,,,0.00,0.000000,,2013-08-29 07:53:00,
2013-08-29 02:02:00,54.0,40.0,-100.00,ESE,110,2.0,4.0,60,0.00,,,0.00,0.000000,,2013-08-29 08:02:00,
2013-08-29 02:12:00,54.0,40.0,-100.00,ESE,110,2.0,4.0,60,0.00,,,0.00,0.000000,,2013-08-29 08:12:00,
2013-08-29 02:22:00,54.0,40.0,-100.00,ESE,111,2.0,3.0,60,0.00,,,0.00,0.000000,,2013-08-29 08:22:00,
2013-08-29 02:52:00,54.0,40.0,-100.00,ESE,111,2.0,3.0,60,0.00,,,0.00,0.000000,,2013-08-29 08:52:00,
2013-08-29 03:01:00,54.0,40.0,-100.00,ESE,111,2.0,3.0,60,0.00,,,0.00,0.000000,,2013-08-29 09:01:00,
2013-08-29 03:12:00,54.0,40.0,-100.00,ESE,111,2.0,3.0,60,0.00,,,0.00,0.000000,,2013-08-29 09:12:00,
2013-08-29 03:22:00,52.0,42.0,-100.00,SW,235,1.0,3.0,68,0.00,,,0.00,0.000000,,2013-08-29 09:22:00,
2013-08-29 03:55:00,52.0,42.0,-100.00,SW,235,1.0,3.0,68,0.00,,,0.00,0.000000,,2013-08-29 09:55:00,
2013-08-29 04:06:00,52.0,42.0,-100.00,SW,235,1.0,3.0,68,0.00,,,0.00,0.000000,,2013-08-29 10:06:00,
2013-08-29 04:14:00,52.0,42.0,-100.00,SW,235,1.0,3.0,68,0.00,,,0.00,0.000000,,2013-08-29 10:14:00,
2013-08-29 04:22:00,51.0,41.0,-100.00,East,97,2.0,3.0,68,0.00,,,0.00,0.000000,,2013-08-29 10:22:00,
2013-08-29 04:53:00,51.0,41.0,-100.00,East,97,2.0,3.0,68,0.00,,,0.00,0.000000,,2013-08-29 10:53:00,
2013-08-29 05:03:00,51.0,41.0,-100.00,East,97,2.0,3.0,68,0.00,,,0.00,0.000000,,2013-08-29 11:03:00,
2013-08-29 05:12:00,51.0,41.0,-100.00,East,97,2.0,3.0,68,0.00,,,0.00,0.000000,,2013-08-29 11:12:00,
2013-08-29 05:22:00,50.0,42.0,-100.00,SE,124,1.0,2.0,73,0.00,,,0.00,0.000000,,2013-08-29 11:22:00,
2013-08-29 05:52:00,50.0,42.0,-100.00,SE,124,1.0,2.0,73,0.00,,,0.00,0.000000,,2013-08-29 11:52:00,
2013-08-29 06:02:00,50.0,42.0,-100.00,SE,124,1.0,2.0,73,0.00,,,0.00,0.000000,,2013-08-29 12:02:00,
2013-08-29 06:11:00,50.0,42.0,-100.00,SE,124,1.0,2.0,73,0.00,,,0.00,0.000000,,2013-08-29 12:11:00,
2013-08-29 06:22:00,50.0,42.0,-100.00,ESE,112,2.0,2.0,73,0.00,,,0.00,0.000000,,2013-08-29 12:22:00,
2013-08-29 06:52:00,50.0,42.0,-100.00,ESE,112,2.0,2.0,73,0.00,,,0.00,0.000000,,2013-08-29 12:52:00,
2013-08-29 07:02:00,50.0,42.0,-100.00,ESE,112,2.0,2.0,73,0.00,,,0.00,0.000000,,2013-08-29 13:02:00,
2013-08-29 07:12:00,50.0,42.0,-100.00,ESE,112,2.0,2.0,73,0.00,,,0.00,0.000000,,2013-08-29 13:12:00,
2013-08-29 07:52:00,51.0,42.0,-100.00,ENE,78,2.0,3.0,71,0.00,,,0.00,19.000000,,2013-08-29 13:52:00,
2013-08-29 08:02:00,51.0,42.0,-100.00,ENE,78,2.0,3.0,71,0.00,,,0.00,19.000000,,2013-08-29 14:02:00,
2013-08-29 08:11:00,51.0,42.0,-100.00,ENE,78,2.0,3.0,71,0.00,,,0.00,19.000000,,2013-08-29 14:11:00,
2013-08-29 08:21:00,51.0,42.0,-100.00,ENE,78,2.0,3.0,71,0.00,,,0.00,19.000000,,2013-08-29 14:21:00,
2013-08-29 08:52:00,58.0,44.0,-100.00,North,6,1.0,3.0,59,0.00,,,0.00,187.000000,,2013-08-29 14:52:00,
2013-08-29 09:02:00,58.0,44.0,-100.00,North,6,1.0,3.0,59,0.00,,,0.00,187.000000,,2013-08-29 15:02:00,
2013-08-29 09:12:00,58.0,44.0,-100.00,North,6,1.0,3.0,59,0.00,,,0.00,187.000000,,2013-08-29 15:12:00,
2013-08-29 09:21:00,58.0,44.0,-100.00,North,6,1.0,3.0,59,0.00,,,0.00,187.000000,,2013-08-29 15:21:00,
2013-08-29 09:22:00,63.0,45.0,-100.00,WNW,300,2.0,3.0,51,0.00,,,0.00,471.000000,,2013-08-29 15:22:00,
2013-08-29 09:53:00,63.0,45.0,-100.00,WNW,300,2.0,3.0,51,0.00,,,0.00,471.000000,,2013-08-29 15:53:00,
2013-08-29 10:05:00,63.0,45.0,-100.00,WNW,300,2.0,3.0,51,0.00,,,0.00,471.000000,,2013-08-29 16:05:00,
2013-08-29 10:13:00,63.0,45.0,-100.00,WNW,300,2.0,3.0,51,0.00,,,0.00,471.000000,,2013-08-29 16:13:00,
2013-08-29 10:22:00,68.0,43.0,-100.00,NW,305,2.0,3.0,41,0.00,,,-99.99,683.000000,,2013-08-29 16:22:00,
2013-08-29 10:54:00,68.0,43.0,-100.00,NW,305,2.0,3.0,41,0.00,,,-99.99,683.000000,,2013-08-29 16:54:00,
2013-08-29 11:04:00,68.0,43.0,-100.00,NW,305,2.0,3.0,41,0.00,,,-99.99,683.000000,,2013-08-29 17:04:00,
2013-08-29 11:13:00,68.0,43.0,-100.00,NW,305,2.0,3.0,41,0.00,,,-99.99,683.000000,,2013-08-29 17:13:00,
2013-08-29 11:53:00,72.0,44.0,-100.00,WNW,293,3.0,5.0,36,0.00,,,-99.99,855.000000,,2013-08-29 17:53:00,
2013-08-29 12:02:00,72.0,44.0,-100.00,WNW,293,3.0,5.0,36,0.00,,,-99.99,855.000000,,2013-08-29 18:02:00,
2013-08-29 12:12:00,72.0,44.0,-100.00,WNW,293,3.0,5.0,36,0.00,,,-99.99,855.000000,,2013-08-29 18:12:00,
2013-08-29 12:21:00,72.0,44.0,-100.00,WNW,293,3.0,5.0,36,0.00,,,-99.99,855.000000,,2013-08-29 18:21:00,
2013-08-29 12:22:00,76.0,40.0,-100.00,WNW,296,3.0,5.0,27,0.00,,,0.00,963.000000,,2013-08-29 18:22:00,
2013-08-29 12:52:00,76.0,40.0,-100.00,WNW,296,3.0,5.0,27,0.00,,,0.00,963.000000,,2013-08-29 18:52:00,
2013-08-29 13:01:00,76.0,40.0,-100.00,WNW,296,3.0,5.0,27,0.00,,,0.00,963.000000,,2013-08-29 19:01:00,
2013-08-29 13:11:00,76.0,40.0,-100.00,WNW,296,3.0,5.0,27,0.00,,,0.00,963.000000,,2013-08-29 19:11:00,
2013-08-29 13:53:00,81.0,37.0,-100.00,WSW,237,4.0,6.0,21,0.00,,,0.00,999.000000,,2013-08-29 19:53:00,
2013-08-29 14:02:00,81.0,37.0,-100.00,WSW,237,4.0,6.0,21,0.00,,,0.00,999.000000,,2013-08-29 20:02:00,
2013-08-29 14:13:00,81.0,37.0,-100.00,WSW,237,4.0,6.0,21,0.00,,,0.00,999.000000,,2013-08-29 20:13:00,
2013-08-29 14:21:00,81.0,37.0,-100.00,WSW,237,4.0,6.0,21,0.00,,,0.00,999.000000,,2013-08-29 20:21:00,
2013-08-29 14:22:00,83.0,35.0,-100.00,WNW,298,4.0,8.0,18,0.00,,,0.00,1065.000000,,2013-08-29 20:22:00,
2013-08-29 14:52:00,83.0,35.0,-100.00,WNW,298,4.0,8.0,18,0.00,,,0.00,1065.000000,,2013-08-29 20:52:00,
2013-08-29 15:01:00,83.0,35.0,-100.00,WNW,298,4.0,8.0,18,0.00,,,0.00,1065.000000,,2013-08-29 21:01:00,
2013-08-29 15:12:00,83.0,35.0,-100.00,WNW,298,4.0,8.0,18,0.00,,,0.00,1065.000000,,2013-08-29 21:12:00,
2013-08-29 15:22:00,78.0,36.0,-100.00,SW,220,3.0,9.0,22,0.00,,,0.00,525.000000,,2013-08-29 21:22:00,
2013-08-29 15:54:00,78.0,36.0,-100.00,SW,220,3.0,9.0,22,0.00,,,0.00,525.000000,,2013-08-29 21:54:00,
2013-08-29 16:04:00,78.0,36.0,-100.00,SW,220,3.0,9.0,22,0.00,,,0.00,525.000000,,2013-08-29 22:04:00,
2013-08-29 16:14:00,78.0,36.0,-100.00,SW,220,3.0,9.0,22,0.00,,,0.00,525.000000,,2013-08-29 22:14:00,
2013-08-29 16:22:00,75.0,37.0,-100.00,SSW,201,5.0,9.0,25,0.00,,,0.00,220.000000,,2013-08-29 22:22:00,
2013-08-29 16:53:00,75.0,37.0,-100.00,SSW,201,5.0,9.0,25,0.00,,,0.00,220.000000,,2013-08-29 22:53:00,
2013-08-29 17:03:00,75.0,37.0,-100.00,SSW,201,5.0,9.0,25,0.00,,,0.00,220.000000,,2013-08-29 23:03:00,
2013-08-29 17:13:00,75.0,37.0,-100.00,SSW,201,5.0,9.0,25,0.00,,,0.00,220.000000,,2013-08-29 23:13:00,
2013-08-29 17:53:00,81.0,33.0,-100.00,SE,133,4.0,7.0,18,0.00,,,0.00,391.000000,,2013-08-29 23:53:00,
2013-08-29 18:02:00,81.0,33.0,-100.00,SE,133,4.0,7.0,18,0.00,,,0.00,391.000000,,2013-08-30 00:02:00,
2013-08-29 18:12:00,81.0,33.0,-100.00,SE,133,4.0,7.0,18,0.00,,,0.00,391.000000,,2013-08-30 00:12:00,
2013-08-29 18:21:00,81.0,33.0,-100.00,SE,133,4.0,7.0,18,0.00,,,0.00,391.000000,,2013-08-30 00:21:00,
2013-08-29 18:22:00,75.0,39.0,-100.00,West,275,5.0,11.0,27,0.00,,,0.00,307.000000,,2013-08-30 00:22:00,
2013-08-29 18:52:00,75.0,39.0,-100.00,West,275,5.0,11.0,27,0.00,,,0.00,307.000000,,2013-08-30 00:52:00,
2013-08-29 19:01:00,75.0,39.0,-100.00,West,275,5.0,11.0,27,0.00,,,0.00,307.000000,,2013-08-30 01:01:00,
2013-08-29 19:12:00,75.0,39.0,-100.00,West,275,5.0,11.0,27,0.00,,,0.00,307.000000,,2013-08-30 01:12:00,
2013-08-29 19:52:00,71.0,39.0,-100.00,WSW,238,4.0,8.0,31,0.00,,,0.00,65.000000,,2013-08-30 01:52:00,
2013-08-29 20:02:00,71.0,39.0,-100.00,WSW,238,4.0,8.0,31,0.00,,,0.00,65.000000,,2013-08-30 02:02:00,
2013-08-29 20:11:00,71.0,39.0,-100.00,WSW,238,4.0,8.0,31,0.00,,,0.00,65.000000,,2013-08-30 02:11:00,
2013-08-29 20:21:00,71.0,39.0,-100.00,WSW,238,4.0,8.0,31,0.00,,,0.00,65.000000,,2013-08-30 02:21:00,
2013-08-29 20:22:00,65.0,43.0,-100.00,NNE,14,4.0,7.0,45,0.00,,,0.00,2.000000,,2013-08-30 02:22:00,
2013-08-29 20:52:00,65.0,43.0,-100.00,NNE,14,4.0,7.0,45,0.00,,,0.00,2.000000,,2013-08-30 02:52:00,
2013-08-29 21:02:00,65.0,43.0,-100.00,NNE,14,4.0,7.0,45,0.00,,,0.00,2.000000,,2013-08-30 03:02:00,
2013-08-29 21:12:00,65.0,43.0,-100.00,NNE,14,4.0,7.0,45,0.00,,,0.00,2.000000,,2013-08-30 03:12:00,
2013-08-29 21:22:00,57.0,51.0,-100.00,ESE,118,2.0,6.0,79,0.01,,,0.01,0.000000,,2013-08-30 03:22:00,
2013-08-29 22:14:00,57.0,51.0,-100.00,ESE,118,2.0,6.0,79,0.01,,,0.01,0.000000,,2013-08-30 04:14:00,
2013-08-29 23:22:00,55.0,52.0,-100.00,ESE,108,2.0,3.0,88,-99.99,,,0.05,0.000000,,2013-08-30 05:22:00,
2013-08-29 23:52:00,55.0,52.0,-100.00,ESE,108,2.0,3.0,88,-99.99,,,0.05,0.000000,,2013-08-30 05:52:00,